createdAt,value
2023-08-11T00:02:13.287Z,15.10
2023-08-11T00:04:39.932Z,15.00
2023-08-11T00:07:06.879Z,15.00
2023-08-11T00:09:33.705Z,15.00
2023-08-11T00:12:00.972Z,14.90
2023-08-11T00:14:27.729Z,14.90
2023-08-11T00:16:54.426Z,14.80
2023-08-11T00:19:21.078Z,14.80
2023-08-11T00:21:48.117Z,14.80
2023-08-11T00:24:14.695Z,14.80
2023-08-11T00:26:41.292Z,14.80
2023-08-11T00:29:07.895Z,14.80
2023-08-11T00:31:34.619Z,14.80
2023-08-11T00:34:02.158Z,14.80
2023-08-11T00:36:28.742Z,14.70
2023-08-11T00:39:01.181Z,14.60
2023-08-11T00:41:28.461Z,14.60
2023-08-11T00:43:55.050Z,14.60
2023-08-11T00:46:24.086Z,14.60
2023-08-11T00:48:52.564Z,14.60
2023-08-11T00:51:20.568Z,14.60
2023-08-11T00:53:47.158Z,14.60
2023-08-11T00:56:14.852Z,14.50
2023-08-11T00:58:42.560Z,14.50
2023-08-11T01:01:09.331Z,14.50
2023-08-11T01:03:35.978Z,14.50
2023-08-11T01:06:24.652Z,14.50
2023-08-11T01:08:51.221Z,14.50
2023-08-11T01:11:29.871Z,14.40
2023-08-11T01:14:17.744Z,14.40
2023-08-11T01:16:49.249Z,14.40
2023-08-11T01:19:25.838Z,14.40
2023-08-11T01:21:52.894Z,14.30
2023-08-11T01:24:19.655Z,14.40
2023-08-11T01:26:47.352Z,14.30
2023-08-11T01:29:14.166Z,14.30
2023-08-11T01:31:40.781Z,14.20
2023-08-11T01:34:08.224Z,14.20
2023-08-11T01:36:37.908Z,14.20
2023-08-11T01:39:05.933Z,14.10
2023-08-11T01:41:33.340Z,14.20
2023-08-11T01:44:00.633Z,14.10
2023-08-11T01:46:28.439Z,14.10
2023-08-11T01:48:56.844Z,14.10
2023-08-11T01:51:27.950Z,14.00
2023-08-11T01:53:55.132Z,14.00
2023-08-11T01:56:22.228Z,13.90
2023-08-11T01:58:48.974Z,13.90
2023-08-11T02:01:15.599Z,13.90
2023-08-11T02:03:42.362Z,13.90
2023-08-11T02:06:09.017Z,13.70
2023-08-11T02:08:35.596Z,13.80
2023-08-11T02:11:02.169Z,13.80
2023-08-11T02:13:29.980Z,13.80
2023-08-11T02:16:01.542Z,13.80
2023-08-11T02:18:28.115Z,13.90
2023-08-11T02:20:54.735Z,13.90
2023-08-11T02:23:21.331Z,13.90
2023-08-11T02:25:48.666Z,13.90
2023-08-11T02:28:16.285Z,13.90
2023-08-11T02:30:42.884Z,13.90
2023-08-11T02:33:09.826Z,13.90
2023-08-11T02:35:36.524Z,13.90
2023-08-11T02:38:03.073Z,13.90
2023-08-11T02:40:29.657Z,13.80
2023-08-11T02:42:57.840Z,13.80
2023-08-11T02:45:25.263Z,13.80
2023-08-11T02:47:52.566Z,13.90
2023-08-11T02:50:19.465Z,13.90
2023-08-11T02:52:46.089Z,13.90
2023-08-11T02:55:12.724Z,13.90
2023-08-11T02:57:39.447Z,13.90
2023-08-11T03:00:11.097Z,13.90
2023-08-11T03:02:37.785Z,13.90
2023-08-11T03:05:08.120Z,14.00
2023-08-11T03:07:36.321Z,14.00
2023-08-11T03:10:04.208Z,14.00
2023-08-11T03:12:30.982Z,14.00
2023-08-11T03:14:57.987Z,14.00
2023-08-11T03:17:25.357Z,14.00
2023-08-11T03:19:53.308Z,14.00
2023-08-11T03:22:20.869Z,14.00
2023-08-11T03:24:48.603Z,14.00
2023-08-11T03:27:18.618Z,14.00
2023-08-11T03:29:45.818Z,14.00
2023-08-11T03:32:12.844Z,14.10
2023-08-11T03:34:39.966Z,14.10
2023-08-11T03:37:07.902Z,14.10
2023-08-11T03:39:34.505Z,14.20
2023-08-11T03:42:01.337Z,14.20
2023-08-11T03:44:28.109Z,14.10
2023-08-11T03:46:54.878Z,14.20
2023-08-11T03:49:21.784Z,14.20
2023-08-11T03:51:48.402Z,14.20
2023-08-11T03:54:16.366Z,14.20
2023-08-11T03:56:42.914Z,14.30
2023-08-11T03:59:09.597Z,14.30
2023-08-11T04:01:36.399Z,14.30
2023-08-11T04:04:03.066Z,14.30
2023-08-11T04:06:33.755Z,14.40
2023-08-11T04:09:02.126Z,14.40
2023-08-11T04:11:29.048Z,14.40
2023-08-11T04:13:55.662Z,14.50
2023-08-11T04:16:23.111Z,14.50
2023-08-11T04:18:51.173Z,14.50
2023-08-11T04:21:18.144Z,14.60
2023-08-11T04:23:44.805Z,14.60
2023-08-11T04:26:12.838Z,14.60
2023-08-11T04:28:39.919Z,14.60
2023-08-11T04:31:10.691Z,14.60
2023-08-11T04:33:38.186Z,14.70
2023-08-11T04:36:04.981Z,14.70
2023-08-11T04:38:32.037Z,14.70
2023-08-11T04:40:59.563Z,14.80
2023-08-11T04:43:26.433Z,14.80
2023-08-11T04:45:53.628Z,14.90
2023-08-11T04:48:20.649Z,14.90
2023-08-11T04:50:52.563Z,14.90
2023-08-11T04:53:19.517Z,14.90
2023-08-11T04:55:46.138Z,14.90
2023-08-11T04:58:14.440Z,14.90
2023-08-11T05:00:41.268Z,15.00
2023-08-11T05:03:07.894Z,15.00
2023-08-11T05:05:35.088Z,15.20
2023-08-11T05:08:01.757Z,15.20
2023-08-11T05:10:28.386Z,15.30
2023-08-11T05:12:55.004Z,15.30
2023-08-11T05:15:21.638Z,15.40
2023-08-11T05:17:48.223Z,15.50
2023-08-11T05:20:16.152Z,15.50
2023-08-11T05:22:42.818Z,15.60
2023-08-11T05:25:10.264Z,15.60
2023-08-11T05:27:36.995Z,15.60
2023-08-11T05:30:05.541Z,15.70
2023-08-11T05:32:32.780Z,15.70
2023-08-11T05:35:00.169Z,15.80
2023-08-11T05:37:26.863Z,15.90
2023-08-11T05:39:54.645Z,15.90
2023-08-11T05:42:21.523Z,16.00
2023-08-11T05:44:48.383Z,16.00
2023-08-11T05:47:15.027Z,16.10
2023-08-11T05:49:41.714Z,16.20
2023-08-11T05:52:08.265Z,16.30
2023-08-11T05:54:36.164Z,16.40
2023-08-11T05:57:02.738Z,16.10
2023-08-11T05:59:29.340Z,16.10
2023-08-11T06:01:55.915Z,16.30
2023-08-11T06:04:22.494Z,16.10
2023-08-11T06:06:49.031Z,16.20
2023-08-11T06:09:15.703Z,16.20
2023-08-11T06:11:42.237Z,16.30
2023-08-11T06:14:08.818Z,16.30
2023-08-11T06:16:35.627Z,16.50
2023-08-11T06:19:02.737Z,16.60
2023-08-11T06:21:29.323Z,16.50
2023-08-11T06:23:55.883Z,16.30
2023-08-11T06:26:22.537Z,16.30
2023-08-11T06:28:49.733Z,16.60
2023-08-11T06:31:19.886Z,16.60
2023-08-11T06:33:47.255Z,16.70
2023-08-11T06:36:14.292Z,17.00
2023-08-11T06:38:40.969Z,16.90
2023-08-11T06:41:07.532Z,16.90
2023-08-11T06:43:34.105Z,16.90
2023-08-11T06:46:02.999Z,17.20
2023-08-11T06:48:29.687Z,17.30
2023-08-11T06:50:57.982Z,17.40
2023-08-11T06:53:24.890Z,17.80
2023-08-11T06:55:52.126Z,18.10
2023-08-11T06:58:18.994Z,18.10
2023-08-11T07:00:45.571Z,18.20
2023-08-11T07:03:12.174Z,18.60
2023-08-11T07:05:38.881Z,18.80
2023-08-11T07:08:05.712Z,18.80
2023-08-11T07:10:33.662Z,18.10
2023-08-11T07:13:00.287Z,18.10
2023-08-11T07:15:26.854Z,18.20
2023-08-11T07:17:53.492Z,18.30
2023-08-11T07:20:20.148Z,18.60
2023-08-11T07:22:46.705Z,18.90
2023-08-11T07:25:13.320Z,18.70
2023-08-11T07:27:40.010Z,18.50
2023-08-11T07:30:07.386Z,18.70
2023-08-11T07:32:34.139Z,18.90
2023-08-11T07:35:00.840Z,19.10
2023-08-11T07:37:27.475Z,19.10
2023-08-11T07:39:54.071Z,19.40
2023-08-11T07:42:20.693Z,19.40
2023-08-11T07:44:47.318Z,19.70
2023-08-11T07:47:13.915Z,20.00
2023-08-11T07:49:40.537Z,20.00
2023-08-11T07:52:07.074Z,19.70
2023-08-11T07:54:33.748Z,19.80
2023-08-11T07:57:00.402Z,19.90
2023-08-11T07:59:27.010Z,20.10
2023-08-11T08:01:53.780Z,20.20
2023-08-11T08:04:20.498Z,20.50
2023-08-11T08:06:47.214Z,20.50
2023-08-11T08:09:15.547Z,20.50
2023-08-11T08:11:44.516Z,20.40
2023-08-11T08:14:13.969Z,20.60
2023-08-11T08:16:46.160Z,20.90
2023-08-11T08:19:14.138Z,21.20
2023-08-11T08:21:42.498Z,21.20
2023-08-11T08:24:09.251Z,21.30
2023-08-11T08:26:39.177Z,21.50
2023-08-11T08:29:05.810Z,21.50
2023-08-11T08:31:33.711Z,21.30
2023-08-11T08:34:01.226Z,21.60
2023-08-11T08:36:28.345Z,21.90
2023-08-11T08:38:54.951Z,22.40
2023-08-11T08:41:29.041Z,22.20
2023-08-11T08:43:57.048Z,22.40
2023-08-11T08:46:29.072Z,21.80
2023-08-11T08:49:04.450Z,22.50
2023-08-11T08:51:31.752Z,23.20
2023-08-11T08:53:58.434Z,22.80
2023-08-11T08:56:25.285Z,23.30
2023-08-11T08:58:52.287Z,23.40
2023-08-11T09:01:19.384Z,23.50
2023-08-11T09:03:47.256Z,23.50
2023-08-11T09:06:14.178Z,23.20
2023-08-11T09:08:40.921Z,23.50
2023-08-11T09:11:08.685Z,23.90
2023-08-11T09:13:35.275Z,24.70
2023-08-11T09:16:02.331Z,25.20
2023-08-11T09:18:29.347Z,25.30
2023-08-11T09:20:55.973Z,24.80
2023-08-11T09:23:25.364Z,23.70
2023-08-11T09:25:55.366Z,24.20
2023-08-11T09:28:22.303Z,24.30
2023-08-11T09:30:49.296Z,25.10
2023-08-11T09:33:16.059Z,25.10
2023-08-11T09:35:43.075Z,24.80
2023-08-11T09:38:09.759Z,25.00
2023-08-11T09:40:36.886Z,24.60
2023-08-11T09:43:03.850Z,24.80
2023-08-11T09:45:31.647Z,24.70
2023-08-11T09:47:58.308Z,23.50
2023-08-11T09:50:27.976Z,24.00
2023-08-11T09:52:56.694Z,25.10
2023-08-11T09:55:24.453Z,25.50
2023-08-11T09:57:52.009Z,25.50
2023-08-11T10:00:20.720Z,25.20
2023-08-11T10:02:48.113Z,24.50
2023-08-11T10:05:15.558Z,24.20
2023-08-11T10:07:44.484Z,24.40
2023-08-11T10:10:15.535Z,24.40
2023-08-11T10:12:47.811Z,25.10
2023-08-11T10:15:17.891Z,25.50
2023-08-11T10:17:45.153Z,26.40
2023-08-11T10:20:11.969Z,27.20
2023-08-11T10:22:38.880Z,25.90
2023-08-11T10:25:08.225Z,24.80
2023-08-11T10:27:37.770Z,24.30
2023-08-11T10:30:06.198Z,24.80
2023-08-11T10:32:33.416Z,25.80
2023-08-11T10:35:00.095Z,26.00
2023-08-11T10:37:31.663Z,25.30
2023-08-11T10:40:10.294Z,25.40
2023-08-11T10:42:41.291Z,26.80
2023-08-11T10:45:10.041Z,27.40
2023-08-11T10:47:38.434Z,28.00
2023-08-11T10:50:08.392Z,26.60
2023-08-11T10:52:35.702Z,26.60
2023-08-11T10:55:04.129Z,25.50
2023-08-11T10:57:34.578Z,25.70
2023-08-11T11:00:01.182Z,27.40
2023-08-11T11:02:27.886Z,28.50
2023-08-11T11:04:57.381Z,27.80
2023-08-11T11:07:24.632Z,27.30
2023-08-11T11:09:51.736Z,27.00
2023-08-11T11:12:18.602Z,27.40
2023-08-11T11:14:45.179Z,27.30
2023-08-11T11:17:12.033Z,27.80
2023-08-11T11:19:38.732Z,27.20
2023-08-11T11:22:07.781Z,27.30
2023-08-11T11:24:34.701Z,28.50
2023-08-11T11:27:01.401Z,29.70
2023-08-11T11:29:29.442Z,29.30
2023-08-11T11:31:56.715Z,30.70
2023-08-11T11:34:23.697Z,29.50
2023-08-11T11:36:50.487Z,28.30
2023-08-11T11:39:17.209Z,29.10
2023-08-11T11:41:43.849Z,30.30
2023-08-11T11:44:10.374Z,30.00
2023-08-11T11:46:37.077Z,28.50
2023-08-11T11:49:12.614Z,27.40
2023-08-11T11:51:42.999Z,28.00
2023-08-11T11:54:09.579Z,29.10
2023-08-11T11:56:38.031Z,30.50
2023-08-11T11:59:04.750Z,28.40
2023-08-11T12:01:31.798Z,29.40
2023-08-11T12:04:01.716Z,30.70
2023-08-11T12:06:29.613Z,31.70
2023-08-11T12:09:10.101Z,31.20
2023-08-11T12:11:39.364Z,30.50
2023-08-11T12:14:07.161Z,28.80
2023-08-11T12:16:33.769Z,29.10
2023-08-11T12:19:01.721Z,30.20
2023-08-11T12:21:28.889Z,31.10
2023-08-11T12:23:55.588Z,30.10
2023-08-11T12:26:22.226Z,31.40
2023-08-11T12:28:49.237Z,30.60
2023-08-11T12:31:15.857Z,31.50
2023-08-11T12:33:42.515Z,31.00
2023-08-11T12:36:09.514Z,30.60
2023-08-11T12:38:38.523Z,32.70
2023-08-11T12:41:05.182Z,33.10
2023-08-11T12:43:31.733Z,34.30
2023-08-11T12:45:58.419Z,32.10
2023-08-11T12:48:25.056Z,31.70
2023-08-11T12:50:51.626Z,33.30
2023-08-11T12:53:18.236Z,33.20
2023-08-11T12:55:44.832Z,34.00
2023-08-11T12:58:11.517Z,32.70
2023-08-11T13:00:38.138Z,31.30
2023-08-11T13:03:05.010Z,33.40
2023-08-11T13:05:31.705Z,33.50
2023-08-11T13:07:58.347Z,30.30
2023-08-11T13:10:24.970Z,31.80
2023-08-11T13:12:51.683Z,32.70
2023-08-11T13:15:18.290Z,33.10
2023-08-11T13:17:45.899Z,33.70
2023-08-11T13:20:13.407Z,32.80
2023-08-11T13:22:41.202Z,32.10
2023-08-11T13:25:08.334Z,30.20
2023-08-11T13:27:35.075Z,29.20
2023-08-11T13:30:01.929Z,31.50
2023-08-11T13:32:28.569Z,32.90
2023-08-11T13:34:55.128Z,32.80
2023-08-11T13:37:21.734Z,33.40
2023-08-11T13:39:48.278Z,33.80
2023-08-11T13:42:14.974Z,34.40
2023-08-11T13:44:41.654Z,33.20
2023-08-11T13:47:08.411Z,32.00
2023-08-11T13:49:35.120Z,32.40
2023-08-11T13:52:01.721Z,32.70
2023-08-11T13:54:29.041Z,31.20
2023-08-11T13:56:55.668Z,32.80
2023-08-11T13:59:22.342Z,34.00
2023-08-11T14:01:48.932Z,34.80
2023-08-11T14:04:15.468Z,35.10
2023-08-11T14:06:42.080Z,36.50
2023-08-11T14:09:08.733Z,36.00
2023-08-11T14:11:35.352Z,31.70
2023-08-11T14:14:01.937Z,30.90
2023-08-11T14:16:28.762Z,32.80
2023-08-11T14:18:56.828Z,33.80
2023-08-11T14:21:23.848Z,36.30
2023-08-11T14:23:51.382Z,36.90
2023-08-11T14:26:18.070Z,37.20
2023-08-11T14:28:44.689Z,39.50
2023-08-11T14:31:11.274Z,40.40
2023-08-11T14:33:41.027Z,40.90
2023-08-11T14:36:12.939Z,38.60
2023-08-11T14:38:40.071Z,39.60
2023-08-11T14:41:07.686Z,39.10
2023-08-11T14:43:34.825Z,35.90
2023-08-11T14:46:01.630Z,34.40
2023-08-11T14:48:28.470Z,32.90
2023-08-11T14:50:55.552Z,31.90
2023-08-11T14:53:24.065Z,31.00
2023-08-11T14:55:50.755Z,28.20
2023-08-11T14:58:18.485Z,28.30
2023-08-11T15:00:45.137Z,28.10
2023-08-11T15:03:13.567Z,27.60
2023-08-11T15:05:41.301Z,27.40
2023-08-11T15:08:08.841Z,26.70
2023-08-11T15:10:35.811Z,26.90
2023-08-11T15:13:05.864Z,26.90
2023-08-11T15:15:33.188Z,27.30
2023-08-11T15:17:59.845Z,27.10
2023-08-11T15:20:26.565Z,27.10
2023-08-11T15:22:53.408Z,27.10
2023-08-11T15:25:20.103Z,27.20
2023-08-11T15:27:46.819Z,27.40
2023-08-11T15:30:14.047Z,27.60
2023-08-11T15:32:40.925Z,27.70
2023-08-11T15:35:09.096Z,27.30
2023-08-11T15:37:36.331Z,27.10
2023-08-11T15:40:05.176Z,27.20
2023-08-11T15:42:31.751Z,27.10
2023-08-11T15:44:58.398Z,26.20
2023-08-11T15:47:24.980Z,26.10
2023-08-11T15:49:51.605Z,26.00
2023-08-11T15:52:18.204Z,25.90
2023-08-11T15:54:44.827Z,25.60
2023-08-11T15:57:11.401Z,26.10
2023-08-11T15:59:38.028Z,26.00
2023-08-11T16:02:10.204Z,25.70
2023-08-11T16:04:37.971Z,26.00
2023-08-11T16:07:04.803Z,26.00
2023-08-11T16:09:31.489Z,26.20
2023-08-11T16:11:58.142Z,26.20
2023-08-11T16:14:27.809Z,26.50
2023-08-11T16:16:55.051Z,26.30
2023-08-11T16:19:22.037Z,26.40
2023-08-11T16:21:48.862Z,26.40
2023-08-11T16:24:15.666Z,25.70
2023-08-11T16:26:42.303Z,25.60
2023-08-11T16:29:08.960Z,25.40
2023-08-11T16:31:35.618Z,25.10
2023-08-11T16:34:02.418Z,25.10
2023-08-11T16:36:28.983Z,25.10
2023-08-11T16:38:55.506Z,25.50
2023-08-11T16:41:22.132Z,25.50
2023-08-11T16:43:50.984Z,25.40
2023-08-11T16:46:19.435Z,25.30
2023-08-11T16:48:46.265Z,25.80
2023-08-11T16:51:15.016Z,25.70
2023-08-11T16:53:42.372Z,25.70
2023-08-11T16:56:09.290Z,25.50
2023-08-11T16:58:36.556Z,25.60
2023-08-11T17:01:03.199Z,25.90
2023-08-11T17:03:30.031Z,26.00
2023-08-11T17:05:56.707Z,26.00
2023-08-11T17:08:23.375Z,25.80
2023-08-11T17:10:49.996Z,25.30
2023-08-11T17:13:16.595Z,25.50
2023-08-11T17:15:43.530Z,25.30
2023-08-11T17:18:10.335Z,25.70
2023-08-11T17:20:38.231Z,25.80
2023-08-11T17:23:04.838Z,25.50
2023-08-11T17:25:31.424Z,25.40
2023-08-11T17:27:57.974Z,25.60
2023-08-11T17:30:24.578Z,25.40
2023-08-11T17:32:51.190Z,25.40
2023-08-11T17:35:17.789Z,25.40
2023-08-11T17:37:44.330Z,25.10
2023-08-11T17:40:11.105Z,25.10
2023-08-11T17:42:37.850Z,25.00
2023-08-11T17:45:05.152Z,25.50
2023-08-11T17:47:32.259Z,25.70
2023-08-11T17:49:58.842Z,25.80
2023-08-11T17:52:25.368Z,25.90
2023-08-11T17:54:52.048Z,25.90
2023-08-11T17:57:19.939Z,26.00
2023-08-11T17:59:46.485Z,25.90
2023-08-11T18:02:13.384Z,25.80
2023-08-11T18:04:40.756Z,25.70
2023-08-11T18:07:08.720Z,25.70
2023-08-11T18:09:35.999Z,25.60
2023-08-11T18:12:02.618Z,25.40
2023-08-11T18:14:31.160Z,25.50
2023-08-11T18:16:57.747Z,25.60
2023-08-11T18:19:24.371Z,25.50
2023-08-11T18:21:51.068Z,25.50
2023-08-11T18:24:17.635Z,25.40
2023-08-11T18:26:44.228Z,24.90
2023-08-11T18:29:10.792Z,25.00
2023-08-11T18:31:37.365Z,24.70
2023-08-11T18:34:04.002Z,24.70
2023-08-11T18:36:31.376Z,24.80
2023-08-11T18:38:57.956Z,24.90
2023-08-11T18:41:24.622Z,24.90
2023-08-11T18:43:51.221Z,24.90
2023-08-11T18:46:18.019Z,24.80
2023-08-11T18:48:44.971Z,24.80
2023-08-11T18:51:12.120Z,24.70
2023-08-11T18:53:38.681Z,24.70
2023-08-11T18:56:05.263Z,24.60
2023-08-11T18:58:31.880Z,24.60
2023-08-11T19:00:58.494Z,24.30
2023-08-11T19:03:26.447Z,24.10
2023-08-11T19:05:53.332Z,24.20
2023-08-11T19:08:19.997Z,24.20
2023-08-11T19:10:46.613Z,24.30
2023-08-11T19:13:13.362Z,24.20
2023-08-11T19:15:40.017Z,24.20
2023-08-11T19:18:06.778Z,24.00
2023-08-11T19:20:33.780Z,23.90
2023-08-11T19:23:00.355Z,23.90
2023-08-11T19:25:26.989Z,23.80
2023-08-11T19:27:53.584Z,23.70
2023-08-11T19:30:20.301Z,23.60
2023-08-11T19:32:47.119Z,23.60
2023-08-11T19:35:13.741Z,23.60
2023-08-11T19:37:40.406Z,23.50
2023-08-11T19:40:07.599Z,23.50
2023-08-11T19:42:34.111Z,23.40
2023-08-11T19:45:00.687Z,23.40
2023-08-11T19:47:27.261Z,23.30
2023-08-11T19:49:53.849Z,23.30
2023-08-11T19:52:20.862Z,23.20
2023-08-11T19:54:48.562Z,23.20
2023-08-11T19:57:15.325Z,23.20
2023-08-11T19:59:41.936Z,23.10
2023-08-11T20:02:08.560Z,23.00
2023-08-11T20:04:35.360Z,22.90
2023-08-11T20:07:02.284Z,22.90
2023-08-11T20:09:28.994Z,22.90
2023-08-11T20:11:56.715Z,22.80
2023-08-11T20:14:23.392Z,22.80
2023-08-11T20:16:50.932Z,22.80
2023-08-11T20:19:18.395Z,22.80
2023-08-11T20:21:45.143Z,22.70
2023-08-11T20:24:12.192Z,22.70
2023-08-11T20:26:38.841Z,22.60
2023-08-11T20:29:05.918Z,22.60
2023-08-11T20:31:34.132Z,22.60
2023-08-11T20:34:01.081Z,22.50
2023-08-11T20:36:27.880Z,22.50
2023-08-11T20:38:54.734Z,22.50
2023-08-11T20:41:21.434Z,22.50
2023-08-11T20:43:49.543Z,22.50
2023-08-11T20:46:16.528Z,22.50
2023-08-11T20:48:43.735Z,22.40
2023-08-11T20:51:12.036Z,22.40
2023-08-11T20:53:38.731Z,22.30
2023-08-11T20:56:05.458Z,22.30
2023-08-11T20:58:32.421Z,22.30
2023-08-11T21:00:59.135Z,22.30
2023-08-11T21:03:26.843Z,22.20
2023-08-11T21:05:56.576Z,22.20
2023-08-11T21:08:23.407Z,22.20
2023-08-11T21:10:50.601Z,22.20
2023-08-11T21:13:17.293Z,22.10
2023-08-11T21:15:43.977Z,22.10
2023-08-11T21:18:11.000Z,22.00
2023-08-11T21:20:38.142Z,22.00
2023-08-11T21:23:06.028Z,22.00
2023-08-11T21:25:35.555Z,21.90
2023-08-11T21:28:02.213Z,21.90
2023-08-11T21:30:29.000Z,21.90
2023-08-11T21:32:55.744Z,21.90
2023-08-11T21:35:22.503Z,21.80
2023-08-11T21:37:51.173Z,21.70
2023-08-11T21:40:17.846Z,21.70
2023-08-11T21:42:45.781Z,21.70
2023-08-11T21:45:12.637Z,21.70
2023-08-11T21:47:39.363Z,21.60
2023-08-11T21:50:07.090Z,21.60
2023-08-11T21:52:34.000Z,21.60
2023-08-11T21:55:00.817Z,21.60
2023-08-11T21:57:27.536Z,21.60
2023-08-11T21:59:54.303Z,21.60
2023-08-11T22:02:21.272Z,21.60
2023-08-11T22:04:47.900Z,21.50
2023-08-11T22:07:14.982Z,21.50
2023-08-11T22:09:42.831Z,21.50
2023-08-11T22:12:13.052Z,21.50
2023-08-11T22:14:40.464Z,21.50
2023-08-11T22:17:07.205Z,21.50
2023-08-11T22:19:36.362Z,21.50
2023-08-11T22:22:06.334Z,21.40
2023-08-11T22:24:41.249Z,21.50
2023-08-11T22:27:11.752Z,21.50
2023-08-11T22:29:39.075Z,21.40
2023-08-11T22:32:05.862Z,21.40
2023-08-11T22:34:32.471Z,21.40
2023-08-11T22:36:59.230Z,21.30
2023-08-11T22:39:25.801Z,21.20
2023-08-11T22:41:52.432Z,21.10
2023-08-11T22:44:19.019Z,21.20
2023-08-11T22:46:45.671Z,21.20
2023-08-11T22:49:12.268Z,21.10
2023-08-11T22:51:38.807Z,21.00
2023-08-11T22:54:06.539Z,21.10
2023-08-11T22:56:33.083Z,20.90
2023-08-11T22:58:59.671Z,21.00
2023-08-11T23:01:26.246Z,20.90
2023-08-11T23:03:52.931Z,20.90
2023-08-11T23:06:20.491Z,20.80
2023-08-11T23:08:47.070Z,20.70
2023-08-11T23:11:13.672Z,20.60
2023-08-11T23:13:40.261Z,20.50
2023-08-11T23:16:07.136Z,20.60
2023-08-11T23:18:33.701Z,20.70
2023-08-11T23:21:00.237Z,20.80
2023-08-11T23:23:26.962Z,20.80
2023-08-11T23:25:53.518Z,20.90
2023-08-11T23:28:22.226Z,20.80
2023-08-11T23:30:48.833Z,20.80
2023-08-11T23:33:16.260Z,20.80
2023-08-11T23:35:42.985Z,20.90
2023-08-11T23:38:11.533Z,20.90
2023-08-11T23:40:38.549Z,20.80
2023-08-11T23:43:05.428Z,20.90
2023-08-11T23:45:32.267Z,20.80
2023-08-11T23:47:58.985Z,20.80
2023-08-11T23:50:25.605Z,20.70
2023-08-11T23:52:52.182Z,20.70
2023-08-11T23:55:18.966Z,20.70
2023-08-11T23:57:45.639Z,20.60
